Impacts TAF Board
For situational awareness. Not to be used for flight planning purposes.
IDs:

KMCO - Orlando Intl, FL, US

Issued at 0205 UTC 20 Mar 2019
Updated at 0350 UTC 20 Mar 2019
Potential Impact None Slight Moderate High
Time<<21/04Z 21/05Z 21/06Z 21/07Z 21/08Z 21/09Z 21/10Z 21/11Z 21/12Z 21/13Z 21/14Z 21/15Z 21/16Z
Type PRVL PRVL
VIS >6 >6
CIG 40 40
Cover BKN BKN
FltCat VFR VFR
WX -- --
WDir 10 10
WSpd 6 6
WGst -- --
Raw TAF
KMCO 200205Z 2002/2106 36011KT P6SM SCT006 BKN015 BKN090
  TEMPO 2002/2006 3SM -RA BKN006
  FM200600 35008KT P6SM SCT015 OVC025
  FM201400 02012KT P6SM BKN025 OVC035
  FM201800 03014G20KT P6SM SCT025 BKN035
  FM210000 01006KT P6SM SCT020 BKN040


METAR Board
Radar Display
Forecast Discussion
For situational awareness. Not to be used for flight planning purposes.